Schulter, Oklahoma
Current Conditions -  °F | °C
As of 9:55 AM on Friday 21 Nov 2014 (Local Time) from KOKM Reporting Station
Overcast Overcast  
Wind Chill: 51°   Ceiling: 1000
Heat Index: 51°   Visibility: 10mi
Dew Point: 47°   Wind: 13mph
Humidity: 85%   Direction: 130°SE
Pressure: 30.13"   Gusts: NA
Location:  35.51°N, 95.96°W
Report Text: KOKM 211555Z AUTO 13011KT 10SM OVC010 11/08 A3013 RMK AO2 T01060081
Loading
Personal Weather Stations






























Interactive Weather Map New forecast layout! Learn more

10-Day Weather Forecast

Advertisements
Track Severe Weather on mobile